Sakura — JG5711 — position and weather

sailwx.info

Track history (hours):
 
Tides and Currents Weather Stations Pressure Air Temp Water Temp Dewpoint Dewpoint Depression Visibility Wind Speed Wind Dir Waves Ship Positions

Sakura

Last reported at 2014-Jul-31 02:33 UTC. Time now 2014-Jul-31 03:20 UTC.
Position N 35°27' E 139°39'.

Length 32 m; draft 3.6 m.

Type: Tug. MMSI: 431101178.

Date/timePositionNaut miles runAvg speedWind from/ knotsBaromVisibWave heightAir tempDewpointWater temp
2014-Jul-31 02:33N 35°27' E 139°39'0 0.0
2014-Jul-31 01:33N 35°27' E 139°39'2 1.8
2014-Jul-31 00:33N 35°28' E 139°41'4 3.7
2014-Jul-30 23:34N 35°26' E 139°44'4 4.2
2014-Jul-30 22:34N 35°27' E 139°39'1 0.6
2014-Jul-30 21:33N 35°27' E 139°40'1 1.3
2014-Jul-30 20:33N 35°27' E 139°39'1 0.1
2014-Jul-30 09:33N 35°27' E 139°40'3 2.9
2014-Jul-30 08:33N 35°27' E 139°43'2 2.3
2014-Jul-30 07:34N 35°28' E 139°40'0 0.0
2014-Jul-30 06:33N 35°28' E 139°40'1 1.1
2014-Jul-30 05:33N 35°27' E 139°41'3 2.8
2014-Jul-30 04:33N 35°28' E 139°44'3 2.6
2014-Jul-30 03:33N 35°25' E 139°43'1 1.3
2014-Jul-30 02:33N 35°26' E 139°41'3 2.7
2014-Jul-30 01:33N 35°27' E 139°39'0 0.0
2014-Jul-30 00:33N 35°27' E 139°39'0 0.0
2014-Jul-29 23:33N 35°27' E 139°39'0 0.0
2014-Jul-29 22:33N 35°27' E 139°39'0 0.0
2014-Jul-29 21:33N 35°27' E 139°39'0 0.0
2014-Jul-29 20:33N 35°27' E 139°39'0 0.0
2014-Jul-29 09:31N 35°27' E 139°39'2 2.4
2014-Jul-29 08:33N 35°27' E 139°41'1 0.7
2014-Jul-29 07:33N 35°28' E 139°42'2 1.9
2014-Jul-29 06:33N 35°27' E 139°40'1 0.8
2014-Jul-29 05:33N 35°27' E 139°41'2 1.9
2014-Jul-29 04:33N 35°27' E 139°39'0 0.0
2014-Jul-29 03:33N 35°27' E 139°39'0 0.0
2014-Jul-29 02:33N 35°27' E 139°39'0 0.0
2014-Jul-29 01:33N 35°27' E 139°39'0 0.0
2014-Jul-29 00:33N 35°27' E 139°39'0 0.0
2014-Jul-28 23:33N 35°27' E 139°39'0 0.0
2014-Jul-27 23:17N 35°27' E 139°39'2 2.7
2014-Jul-27 22:34N 35°27' E 139°41'2 2.0
2014-Jul-27 21:33N 35°27' E 139°43'2 1.5
2014-Jul-27 20:33N 35°28' E 139°41'1 0.8
2014-Jul-27 19:33N 35°28' E 139°40'0 0.0
2014-Jul-27 18:33N 35°28' E 139°40'0 0.0
2014-Jul-27 17:33N 35°28' E 139°40'0 0.0
2014-Jul-27 16:33N 35°28' E 139°40'0 0.0
2014-Jul-27 15:33N 35°28' E 139°40'1 1.0
2014-Jul-27 14:33N 35°27' E 139°40'1 1.0
2014-Jul-27 13:33N 35°28' E 139°40'0 0.0
2014-Jul-27 12:33N 35°28' E 139°40'0 0.0
2014-Jul-27 11:33N 35°28' E 139°40'0 0.0
2014-Jul-27 10:33N 35°28' E 139°40'1 1.1
2014-Jul-27 09:33N 35°27' E 139°40'2 2.1
2014-Jul-27 08:34N 35°26' E 139°43'2 2.5
2014-Jul-27 07:33N 35°27' E 139°40'0 0.4
2014-Jul-27 06:33N 35°27' E 139°40'0 0.0
2014-Jul-27 05:33N 35°27' E 139°40'0 0.0
2014-Jul-27 04:33N 35°27' E 139°40'0 0.0
2014-Jul-27 03:33N 35°27' E 139°40'0 0.0
2014-Jul-27 02:33N 35°27' E 139°40'0 0.0
2014-Jul-27 01:33N 35°27' E 139°40'0 0.0
2014-Jul-27 00:33N 35°27' E 139°40'0 0.0
2014-Jul-26 23:33N 35°27' E 139°40'0 0.0
2014-Jul-26 22:33N 35°27' E 139°40'0 0.0
2014-Jul-26 21:33N 35°27' E 139°40'0 0.0
2014-Jul-26 07:11N 35°27' E 139°40'3 4.4
2014-Jul-26 06:33N 35°29' E 139°42'4 3.7
2014-Jul-26 05:33N 35°31' E 139°46'4 4.3
2014-Jul-26 04:34N 35°27' E 139°43'1 1.2
2014-Jul-26 03:33N 35°28' E 139°44'0 0.0
2014-Jul-26 02:33N 35°28' E 139°44'3 2.8
2014-Jul-26 01:34N 35°27' E 139°41'1 0.8
2014-Jul-26 00:33N 35°27' E 139°40'0 0.2
2014-Jul-25 23:33N 35°27' E 139°40'0 0.4
2014-Jul-25 22:33N 35°27' E 139°39'2 1.6
2014-Jul-25 21:33N 35°27' E 139°41'1 1.2
2014-Jul-25 20:33N 35°27' E 139°40'0 0.0
2014-Jul-25 10:19N 35°27' E 139°40'1 0.9
2014-Jul-25 09:34N 35°26' E 139°40'0 0.0
2014-Jul-25 08:34N 35°26' E 139°40'2 1.6
2014-Jul-25 07:33N 35°27' E 139°42'0 0.0
2014-Jul-25 06:33N 35°27' E 139°42'1 1.2
2014-Jul-25 05:33N 35°26' E 139°41'1 1.1
2014-Jul-25 04:33N 35°27' E 139°40'0 0.0
2014-Jul-25 03:33N 35°27' E 139°40'0 0.0
2014-Jul-25 02:33N 35°27' E 139°40'0 0.0
2014-Jul-25 01:33N 35°27' E 139°40'0 0.0
2014-Jul-25 00:33N 35°27' E 139°40'0 0.0
2014-Jul-24 23:33N 35°27' E 139°40'2 2.2
2014-Jul-24 22:34N 35°26' E 139°42'2 2.1
2014-Jul-24 21:33N 35°27' E 139°40'0 0.0
2014-Jul-24 10:28N 35°27' E 139°40'1 1.0
2014-Jul-24 09:33N 35°27' E 139°41'2 2.1
2014-Jul-24 08:33N 35°26' E 139°43'3 2.8
2014-Jul-24 07:34N 35°27' E 139°40'0 0.2
2014-Jul-24 06:34N 35°27' E 139°40'0 0.0
2014-Jul-24 05:34N 35°27' E 139°40'0 0.0
2014-Jul-24 04:34N 35°27' E 139°40'5 4.7
2014-Jul-24 03:33N 35°30' E 139°44'2 2.0
2014-Jul-24 02:33N 35°31' E 139°46'1 1.5
2014-Jul-24 01:34N 35°30' E 139°48'3 3.0
2014-Jul-24 00:33N 35°28' E 139°45'4 4.2
2014-Jul-23 23:33N 35°27' E 139°40'0 0.0
2014-Jul-23 22:33N 35°27' E 139°40'0 0.0
2014-Jul-23 00:05N 35°27' E 139°40'0 0.6
2014-Jul-22 23:33N 35°27' E 139°40'2 1.9
2014-Jul-22 22:33N 35°26' E 139°42'0 0.0
2014-Jul-22 21:33N 35°26' E 139°42'2 1.7
2014-Jul-22 20:34N 35°28' E 139°42'1 1.0
2014-Jul-22 19:34N 35°28' E 139°40'0 0.0
2014-Jul-22 18:34N 35°28' E 139°40'0 0.0
2014-Jul-22 17:34N 35°28' E 139°40'0 0.0
2014-Jul-22 16:34N 35°28' E 139°40'0 0.0
2014-Jul-22 15:34N 35°28' E 139°40'0 0.0
2014-Jul-22 14:34N 35°28' E 139°40'2 1.6
2014-Jul-22 13:34N 35°29' E 139°42'2 2.0
2014-Jul-22 12:33N 35°30' E 139°44'4 4.5
2014-Jul-22 11:34N 35°27' E 139°40'0 0.0
2014-Jul-22 10:34N 35°27' E 139°40'2 2.3
2014-Jul-22 09:33N 35°28' E 139°42'0 0.4
2014-Jul-22 08:33N 35°28' E 139°42'1 1.4
2014-Jul-22 07:33N 35°27' E 139°43'1 1.4
2014-Jul-22 06:33N 35°26' E 139°41'1 0.5
2014-Jul-22 05:33N 35°27' E 139°40'1 0.6
2014-Jul-22 04:33N 35°27' E 139°40'0 0.2
2014-Jul-22 03:33N 35°27' E 139°40'0 0.0
2014-Jul-22 02:33N 35°27' E 139°40'0 0.0
2014-Jul-22 01:33N 35°27' E 139°40'0 0.0
2014-Jul-22 00:33N 35°27' E 139°40'0 0.0
2014-Jul-21 23:33N 35°27' E 139°40'2 1.8
2014-Jul-21 22:33N 35°27' E 139°42'2 1.8
2014-Jul-21 21:33N 35°27' E 139°40'  
Track history (hours):
 
Tides and Currents Weather Stations Pressure Air Temp Water Temp Dewpoint Dewpoint Depression Visibility Wind Speed Wind Dir Waves Ship Positions

Sakura

Last reported at 2014-Jul-31 02:33 UTC. Time now 2014-Jul-31 03:20 UTC.
Position N 35°27' E 139°39'.

Length 32 m; draft 3.6 m.

Type: Tug. MMSI: 431101178.

Date/timePositionNaut miles runAvg speedWind from/ knotsBaromVisibWave heightAir tempDewpointWater temp
2014-Jul-31 02:33N 35°27' E 139°39'0 0.0
2014-Jul-31 01:33N 35°27' E 139°39'2 1.8
2014-Jul-31 00:33N 35°28' E 139°41'4 3.7
2014-Jul-30 23:34N 35°26' E 139°44'4 4.2
2014-Jul-30 22:34N 35°27' E 139°39'1 0.6
2014-Jul-30 21:33N 35°27' E 139°40'1 1.3
2014-Jul-30 20:33N 35°27' E 139°39'1 0.1
2014-Jul-30 09:33N 35°27' E 139°40'3 2.9
2014-Jul-30 08:33N 35°27' E 139°43'2 2.3
2014-Jul-30 07:34N 35°28' E 139°40'0 0.0
2014-Jul-30 06:33N 35°28' E 139°40'1 1.1
2014-Jul-30 05:33N 35°27' E 139°41'3 2.8
2014-Jul-30 04:33N 35°28' E 139°44'3 2.6
2014-Jul-30 03:33N 35°25' E 139°43'1 1.3
2014-Jul-30 02:33N 35°26' E 139°41'3 2.7
2014-Jul-30 01:33N 35°27' E 139°39'0 0.0
2014-Jul-30 00:33N 35°27' E 139°39'0 0.0
2014-Jul-29 23:33N 35°27' E 139°39'0 0.0
2014-Jul-29 22:33N 35°27' E 139°39'0 0.0
2014-Jul-29 21:33N 35°27' E 139°39'0 0.0
2014-Jul-29 20:33N 35°27' E 139°39'0 0.0
2014-Jul-29 09:31N 35°27' E 139°39'2 2.4
2014-Jul-29 08:33N 35°27' E 139°41'1 0.7
2014-Jul-29 07:33N 35°28' E 139°42'2 1.9
2014-Jul-29 06:33N 35°27' E 139°40'1 0.8
2014-Jul-29 05:33N 35°27' E 139°41'2 1.9
2014-Jul-29 04:33N 35°27' E 139°39'0 0.0
2014-Jul-29 03:33N 35°27' E 139°39'0 0.0
2014-Jul-29 02:33N 35°27' E 139°39'0 0.0
2014-Jul-29 01:33N 35°27' E 139°39'0 0.0
2014-Jul-29 00:33N 35°27' E 139°39'0 0.0
2014-Jul-28 23:33N 35°27' E 139°39'0 0.0
2014-Jul-27 23:17N 35°27' E 139°39'2 2.7
2014-Jul-27 22:34N 35°27' E 139°41'2 2.0
2014-Jul-27 21:33N 35°27' E 139°43'2 1.5
2014-Jul-27 20:33N 35°28' E 139°41'1 0.8
2014-Jul-27 19:33N 35°28' E 139°40'0 0.0
2014-Jul-27 18:33N 35°28' E 139°40'0 0.0
2014-Jul-27 17:33N 35°28' E 139°40'0 0.0
2014-Jul-27 16:33N 35°28' E 139°40'0 0.0
2014-Jul-27 15:33N 35°28' E 139°40'1 1.0
2014-Jul-27 14:33N 35°27' E 139°40'1 1.0
2014-Jul-27 13:33N 35°28' E 139°40'0 0.0
2014-Jul-27 12:33N 35°28' E 139°40'0 0.0
2014-Jul-27 11:33N 35°28' E 139°40'0 0.0
2014-Jul-27 10:33N 35°28' E 139°40'1 1.1
2014-Jul-27 09:33N 35°27' E 139°40'2 2.1
2014-Jul-27 08:34N 35°26' E 139°43'2 2.5
2014-Jul-27 07:33N 35°27' E 139°40'0 0.4
2014-Jul-27 06:33N 35°27' E 139°40'0 0.0
2014-Jul-27 05:33N 35°27' E 139°40'0 0.0
2014-Jul-27 04:33N 35°27' E 139°40'0 0.0
2014-Jul-27 03:33N 35°27' E 139°40'0 0.0
2014-Jul-27 02:33N 35°27' E 139°40'0 0.0
2014-Jul-27 01:33N 35°27' E 139°40'0 0.0
2014-Jul-27 00:33N 35°27' E 139°40'0 0.0
2014-Jul-26 23:33N 35°27' E 139°40'0 0.0
2014-Jul-26 22:33N 35°27' E 139°40'0 0.0
2014-Jul-26 21:33N 35°27' E 139°40'0 0.0
2014-Jul-26 07:11N 35°27' E 139°40'3 4.4
2014-Jul-26 06:33N 35°29' E 139°42'4 3.7
2014-Jul-26 05:33N 35°31' E 139°46'4 4.3
2014-Jul-26 04:34N 35°27' E 139°43'1 1.2
2014-Jul-26 03:33N 35°28' E 139°44'0 0.0
2014-Jul-26 02:33N 35°28' E 139°44'3 2.8
2014-Jul-26 01:34N 35°27' E 139°41'1 0.8
2014-Jul-26 00:33N 35°27' E 139°40'0 0.2
2014-Jul-25 23:33N 35°27' E 139°40'0 0.4
2014-Jul-25 22:33N 35°27' E 139°39'2 1.6
2014-Jul-25 21:33N 35°27' E 139°41'1 1.2
2014-Jul-25 20:33N 35°27' E 139°40'0 0.0
2014-Jul-25 10:19N 35°27' E 139°40'1 0.9
2014-Jul-25 09:34N 35°26' E 139°40'0 0.0
2014-Jul-25 08:34N 35°26' E 139°40'2 1.6
2014-Jul-25 07:33N 35°27' E 139°42'0 0.0
2014-Jul-25 06:33N 35°27' E 139°42'1 1.2
2014-Jul-25 05:33N 35°26' E 139°41'1 1.1
2014-Jul-25 04:33N 35°27' E 139°40'0 0.0
2014-Jul-25 03:33N 35°27' E 139°40'0 0.0
2014-Jul-25 02:33N 35°27' E 139°40'0 0.0
2014-Jul-25 01:33N 35°27' E 139°40'0 0.0
2014-Jul-25 00:33N 35°27' E 139°40'0 0.0
2014-Jul-24 23:33N 35°27' E 139°40'2 2.2
2014-Jul-24 22:34N 35°26' E 139°42'2 2.1
2014-Jul-24 21:33N 35°27' E 139°40'0 0.0
2014-Jul-24 10:28N 35°27' E 139°40'1 1.0
2014-Jul-24 09:33N 35°27' E 139°41'2 2.1
2014-Jul-24 08:33N 35°26' E 139°43'3 2.8
2014-Jul-24 07:34N 35°27' E 139°40'0 0.2
2014-Jul-24 06:34N 35°27' E 139°40'0 0.0
2014-Jul-24 05:34N 35°27' E 139°40'0 0.0
2014-Jul-24 04:34N 35°27' E 139°40'5 4.7
2014-Jul-24 03:33N 35°30' E 139°44'2 2.0
2014-Jul-24 02:33N 35°31' E 139°46'1 1.5
2014-Jul-24 01:34N 35°30' E 139°48'3 3.0
2014-Jul-24 00:33N 35°28' E 139°45'4 4.2
2014-Jul-23 23:33N 35°27' E 139°40'0 0.0
2014-Jul-23 22:33N 35°27' E 139°40'0 0.0
2014-Jul-23 00:05N 35°27' E 139°40'0 0.6
2014-Jul-22 23:33N 35°27' E 139°40'2 1.9
2014-Jul-22 22:33N 35°26' E 139°42'0 0.0
2014-Jul-22 21:33N 35°26' E 139°42'2 1.7
2014-Jul-22 20:34N 35°28' E 139°42'1 1.0
2014-Jul-22 19:34N 35°28' E 139°40'0 0.0
2014-Jul-22 18:34N 35°28' E 139°40'0 0.0
2014-Jul-22 17:34N 35°28' E 139°40'0 0.0
2014-Jul-22 16:34N 35°28' E 139°40'0 0.0
2014-Jul-22 15:34N 35°28' E 139°40'0 0.0
2014-Jul-22 14:34N 35°28' E 139°40'2 1.6
2014-Jul-22 13:34N 35°29' E 139°42'2 2.0
2014-Jul-22 12:33N 35°30' E 139°44'4 4.5
2014-Jul-22 11:34N 35°27' E 139°40'0 0.0
2014-Jul-22 10:34N 35°27' E 139°40'2 2.3
2014-Jul-22 09:33N 35°28' E 139°42'0 0.4
2014-Jul-22 08:33N 35°28' E 139°42'1 1.4
2014-Jul-22 07:33N 35°27' E 139°43'1 1.4
2014-Jul-22 06:33N 35°26' E 139°41'1 0.5
2014-Jul-22 05:33N 35°27' E 139°40'1 0.6
2014-Jul-22 04:33N 35°27' E 139°40'0 0.2
2014-Jul-22 03:33N 35°27' E 139°40'0 0.0
2014-Jul-22 02:33N 35°27' E 139°40'0 0.0
2014-Jul-22 01:33N 35°27' E 139°40'0 0.0
2014-Jul-22 00:33N 35°27' E 139°40'0 0.0
2014-Jul-21 23:33N 35°27' E 139°40'2 1.8
2014-Jul-21 22:33N 35°27' E 139°42'2 1.8
2014-Jul-21 21:33N 35°27' E 139°40'  

Dump ship's entire track history